createdAt,value
2022-08-05T00:00:33.603Z,0.00
2022-08-05T00:01:36.304Z,0.00
2022-08-05T00:02:33.950Z,0.00
2022-08-05T00:03:33.110Z,0.00
2022-08-05T00:04:33.270Z,0.00
2022-08-05T00:06:06.609Z,0.00
2022-08-05T00:06:36.082Z,0.00
2022-08-05T00:07:59.904Z,0.00
2022-08-05T00:08:36.104Z,0.00
2022-08-05T00:09:34.182Z,0.00
2022-08-05T00:10:34.342Z,0.00
2022-08-05T00:11:48.355Z,0.00
2022-08-05T00:12:35.713Z,0.00
2022-08-05T00:13:39.112Z,0.00
2022-08-05T00:14:35.063Z,0.00
2022-08-05T00:15:55.851Z,0.00
2022-08-05T00:16:52.369Z,0.00
2022-08-05T00:17:36.576Z,0.00
2022-08-05T00:18:35.766Z,0.00
2022-08-05T00:20:01.747Z,0.00
2022-08-05T00:20:37.118Z,0.00
2022-08-05T00:21:36.306Z,0.00
2022-08-05T00:22:36.480Z,0.00
2022-08-05T00:23:45.881Z,0.00
2022-08-05T00:24:38.338Z,0.00
2022-08-05T00:25:45.948Z,0.00
2022-08-05T00:26:38.182Z,0.00
2022-08-05T00:27:37.564Z,0.00
2022-08-05T00:28:38.509Z,0.00
2022-08-05T00:29:38.411Z,0.00
2022-08-05T00:30:37.860Z,0.00
2022-08-05T00:31:41.351Z,0.00
2022-08-05T00:32:39.207Z,0.00
2022-08-05T00:34:54.673Z,0.00
2022-08-05T00:34:55.585Z,0.00
2022-08-05T00:36:14.988Z,0.00
2022-08-05T00:37:12.942Z,0.00
2022-08-05T00:37:53.235Z,0.00
2022-08-05T00:38:40.249Z,0.00
2022-08-05T00:39:41.730Z,0.00
2022-08-05T00:40:40.621Z,0.00
2022-08-05T00:41:52.097Z,0.00
2022-08-05T00:42:40.973Z,0.00
2022-08-05T00:43:47.121Z,0.00
2022-08-05T00:44:41.329Z,0.00
2022-08-05T00:45:43.887Z,0.00
2022-08-05T00:46:43.558Z,0.00
2022-08-05T00:47:56.381Z,0.00
2022-08-05T00:48:50.837Z,0.00
2022-08-05T00:49:49.359Z,0.00
2022-08-05T00:50:44.229Z,0.00
2022-08-05T00:51:51.080Z,0.00
2022-08-05T00:52:45.463Z,0.00
2022-08-05T00:54:00.396Z,0.00
2022-08-05T00:54:43.359Z,0.00
2022-08-05T00:55:43.801Z,0.00
2022-08-05T00:56:51.514Z,0.00
2022-08-05T00:57:57.853Z,0.00
2022-08-05T00:58:44.966Z,0.00
2022-08-05T00:59:44.548Z,0.00
2022-08-05T01:00:43.222Z,0.00
2022-08-05T01:01:48.960Z,0.00
2022-08-05T01:02:44.537Z,0.00
2022-08-05T01:03:43.750Z,0.00
2022-08-05T01:04:44.915Z,0.00
2022-08-05T01:05:45.085Z,0.00
2022-08-05T01:06:48.889Z,0.00
2022-08-05T01:08:29.899Z,0.00
2022-08-05T01:08:47.259Z,0.00
2022-08-05T01:09:44.810Z,0.00
2022-08-05T01:10:51.610Z,0.00
2022-08-05T01:11:46.137Z,0.00
2022-08-05T01:13:05.026Z,0.00
2022-08-05T01:13:58.585Z,0.00
2022-08-05T01:14:46.661Z,0.00
2022-08-05T01:15:47.861Z,0.00
2022-08-05T01:16:46.009Z,0.00
2022-08-05T01:17:46.201Z,0.00
2022-08-05T01:18:48.180Z,0.00
2022-08-05T01:20:01.137Z,0.00
2022-08-05T01:20:47.750Z,0.00
2022-08-05T01:21:50.645Z,0.00
2022-08-05T01:22:47.278Z,0.00
2022-08-05T01:23:53.027Z,0.00
2022-08-05T01:24:48.419Z,0.00
2022-08-05T01:25:53.360Z,0.00
2022-08-05T01:26:48.746Z,0.00
2022-08-05T01:27:55.796Z,0.00
2022-08-05T01:28:49.126Z,0.00
2022-08-05T01:29:48.266Z,0.00
2022-08-05T01:30:53.546Z,0.00
2022-08-05T01:31:49.633Z,0.00
2022-08-05T01:32:48.797Z,0.00
2022-08-05T01:33:53.475Z,0.00
2022-08-05T01:34:49.143Z,0.00
2022-08-05T01:35:51.294Z,0.00
2022-08-05T01:36:49.453Z,0.00
2022-08-05T01:37:49.606Z,0.00
2022-08-05T01:38:50.006Z,0.00
2022-08-05T01:39:50.020Z,0.00
2022-08-05T01:40:50.173Z,0.00
2022-08-05T01:41:50.350Z,0.00
2022-08-05T01:42:50.597Z,0.00
2022-08-05T01:43:50.722Z,0.00
2022-08-05T01:44:54.193Z,0.00
2022-08-05T01:45:55.243Z,0.00
2022-08-05T01:46:52.221Z,0.00
2022-08-05T01:47:54.431Z,0.00
2022-08-05T01:48:51.606Z,0.00
2022-08-05T01:50:02.020Z,0.00
2022-08-05T01:50:52.956Z,0.00
2022-08-05T01:51:52.144Z,0.00
2022-08-05T01:52:52.304Z,0.00
2022-08-05T01:53:57.187Z,0.00
2022-08-05T01:54:53.636Z,0.00
2022-08-05T01:55:52.817Z,0.00
2022-08-05T01:58:10.897Z,0.00
2022-08-05T01:58:13.192Z,0.00
2022-08-05T01:58:54.387Z,0.00
2022-08-05T01:59:53.528Z,0.00
2022-08-05T02:00:53.717Z,0.00
2022-08-05T02:01:54.815Z,0.00
2022-08-05T02:02:55.168Z,0.00
2022-08-05T02:03:54.232Z,0.00
2022-08-05T02:04:54.433Z,0.00
2022-08-05T02:05:57.792Z,0.00
2022-08-05T02:06:55.771Z,0.00
2022-08-05T02:08:00.398Z,0.00
2022-08-05T02:08:58.992Z,0.00
2022-08-05T02:09:55.318Z,0.00
2022-08-05T02:10:55.483Z,0.00
2022-08-05T02:11:55.657Z,0.00
2022-08-05T02:12:55.815Z,0.00
2022-08-05T02:13:55.984Z,0.00
2022-08-05T02:14:56.154Z,0.00
2022-08-05T02:15:56.322Z,0.00
2022-08-05T02:16:56.486Z,0.00
2022-08-05T02:18:27.964Z,0.00
2022-08-05T02:18:57.812Z,0.00
2022-08-05T02:19:57.006Z,0.00
2022-08-05T02:20:58.935Z,0.00
2022-08-05T02:21:57.362Z,0.00
2022-08-05T02:22:57.533Z,0.00
2022-08-05T02:23:57.699Z,0.00
2022-08-05T02:24:57.911Z,0.00
2022-08-05T02:25:58.059Z,0.00
2022-08-05T02:26:58.265Z,0.00
2022-08-05T02:28:00.374Z,0.00
2022-08-05T02:28:58.599Z,0.00
2022-08-05T02:30:00.738Z,0.00
2022-08-05T02:30:58.903Z,0.00
2022-08-05T02:31:59.062Z,0.00
2022-08-05T02:33:00.254Z,0.00
2022-08-05T02:33:59.439Z,0.00
2022-08-05T02:34:59.622Z,0.00
2022-08-05T02:36:00.928Z,0.00
2022-08-05T02:36:59.967Z,0.00
2022-08-05T02:38:00.376Z,0.00
2022-08-05T02:39:00.446Z,0.00
2022-08-05T02:40:00.474Z,0.00
2022-08-05T02:41:00.640Z,0.00
2022-08-05T02:42:01.826Z,0.00
2022-08-05T02:43:01.000Z,0.00
2022-08-05T02:44:02.786Z,0.00
2022-08-05T02:45:02.350Z,0.00
2022-08-05T02:46:01.556Z,0.00
2022-08-05T02:47:01.733Z,0.00
2022-08-05T02:48:12.060Z,0.00
2022-08-05T02:49:03.080Z,0.00
2022-08-05T02:50:02.248Z,0.00
2022-08-05T02:51:02.447Z,0.00
2022-08-05T02:52:04.326Z,0.00
2022-08-05T02:53:02.758Z,0.00
2022-08-05T02:54:04.073Z,0.00
2022-08-05T02:55:05.082Z,0.00
2022-08-05T02:56:03.248Z,0.00
2022-08-05T02:57:03.401Z,0.00
2022-08-05T02:58:09.385Z,0.00
2022-08-05T02:59:04.773Z,0.00
2022-08-05T03:00:03.975Z,0.00
2022-08-05T03:01:04.194Z,0.00
2022-08-05T03:02:04.278Z,0.00
2022-08-05T03:03:10.147Z,0.00
2022-08-05T03:04:12.108Z,0.00
2022-08-05T03:05:05.807Z,0.00
2022-08-05T03:06:56.560Z,0.00
2022-08-05T03:07:06.167Z,0.00
2022-08-05T03:08:08.666Z,0.00
2022-08-05T03:09:05.516Z,0.00
2022-08-05T03:10:05.683Z,0.00
2022-08-05T03:11:55.999Z,0.00
2022-08-05T03:12:07.820Z,0.00
2022-08-05T03:13:51.533Z,0.00
2022-08-05T03:14:46.080Z,0.00
2022-08-05T03:15:42.606Z,4.00
2022-08-05T03:16:42.796Z,4.00
2022-08-05T03:17:44.859Z,0.00
2022-08-05T03:18:43.137Z,0.00
2022-08-05T03:19:45.818Z,4.00
2022-08-05T03:20:48.672Z,4.00
2022-08-05T03:21:48.673Z,0.00
2022-08-05T03:22:49.765Z,4.00
2022-08-05T03:23:45.612Z,0.00
2022-08-05T03:24:44.166Z,4.00
2022-08-05T03:26:03.658Z,4.00
2022-08-05T03:26:45.695Z,0.00
2022-08-05T03:27:58.959Z,4.00
2022-08-05T03:28:45.880Z,4.00
2022-08-05T03:30:08.152Z,4.00
2022-08-05T03:30:46.201Z,4.00
2022-08-05T03:31:56.772Z,8.00
2022-08-05T03:32:46.844Z,4.00
2022-08-05T03:33:52.724Z,4.00
2022-08-05T03:34:50.707Z,8.00
2022-08-05T03:35:46.080Z,8.00
2022-08-05T03:36:46.279Z,4.00
2022-08-05T03:37:46.958Z,8.00
2022-08-05T03:38:53.378Z,12.00
2022-08-05T03:39:58.526Z,8.00
2022-08-05T03:40:48.746Z,12.00
2022-08-05T03:41:47.143Z,12.00
2022-08-05T03:42:51.762Z,12.00
2022-08-05T03:44:09.068Z,12.00
2022-08-05T03:44:48.663Z,12.00
2022-08-05T03:45:57.622Z,12.00
2022-08-05T03:46:49.027Z,16.00
2022-08-05T03:47:49.337Z,12.00
2022-08-05T03:48:48.376Z,16.00
2022-08-05T03:49:51.048Z,16.00
2022-08-05T03:50:48.735Z,16.00
2022-08-05T03:52:49.071Z,16.00
2022-08-05T03:55:50.587Z,20.00
2022-08-05T03:55:51.363Z,20.00
2022-08-05T03:55:51.626Z,20.00
2022-08-05T03:56:11.574Z,20.00
2022-08-05T03:56:50.765Z,24.00
2022-08-05T03:57:50.212Z,28.00
2022-08-05T03:58:51.154Z,24.00
2022-08-05T03:59:54.966Z,24.00
2022-08-05T04:00:51.718Z,28.00
2022-08-05T04:01:50.652Z,32.00
2022-08-05T04:02:52.285Z,32.00
2022-08-05T04:04:05.367Z,32.00
2022-08-05T04:04:52.181Z,36.00
2022-08-05T04:05:51.331Z,40.00
2022-08-05T04:06:51.829Z,40.00
2022-08-05T04:07:58.678Z,44.00
2022-08-05T04:08:52.822Z,40.00
2022-08-05T04:09:53.809Z,44.00
2022-08-05T04:10:52.200Z,48.00
2022-08-05T04:11:52.642Z,48.00
2022-08-05T04:12:52.554Z,52.00
2022-08-05T04:13:53.497Z,52.00
2022-08-05T04:14:52.896Z,56.00
2022-08-05T04:16:04.582Z,60.00
2022-08-05T04:16:54.256Z,56.00
2022-08-05T04:17:56.263Z,64.00
2022-08-05T04:18:53.967Z,64.00
2022-08-05T04:19:54.465Z,68.00
2022-08-05T04:20:54.917Z,72.00
2022-08-05T04:22:08.357Z,76.00
2022-08-05T04:22:55.246Z,80.00
2022-08-05T04:24:05.082Z,84.00
2022-08-05T04:24:55.618Z,84.00
2022-08-05T04:25:57.425Z,88.00
2022-08-05T04:26:55.938Z,92.00
2022-08-05T04:27:57.212Z,92.00
2022-08-05T04:28:55.311Z,92.00
2022-08-05T04:29:55.491Z,92.00
2022-08-05T04:30:55.665Z,96.00
2022-08-05T04:31:56.726Z,92.00
2022-08-05T04:32:56.022Z,96.00
2022-08-05T04:34:19.714Z,96.00
2022-08-05T04:34:57.596Z,100.00
2022-08-05T04:36:16.570Z,100.00
2022-08-05T04:36:57.751Z,104.00
2022-08-05T04:38:02.230Z,108.00
2022-08-05T04:38:58.094Z,108.00
2022-08-05T04:39:57.223Z,112.00
2022-08-05T04:40:57.379Z,112.00
2022-08-05T04:41:57.546Z,112.00
2022-08-05T04:42:57.705Z,116.00
2022-08-05T04:43:57.895Z,120.00
2022-08-05T04:44:58.027Z,120.00
2022-08-05T04:45:58.218Z,120.00
2022-08-05T04:46:58.659Z,124.00
2022-08-05T04:47:58.582Z,124.00
2022-08-05T04:48:58.924Z,120.00
2022-08-05T04:50:02.951Z,124.00
2022-08-05T04:51:02.654Z,124.00
2022-08-05T04:52:00.378Z,124.00
2022-08-05T04:52:59.459Z,124.00
2022-08-05T04:54:01.280Z,124.00
2022-08-05T04:54:59.790Z,124.00
2022-08-05T04:56:14.429Z,124.00
2022-08-05T04:57:01.192Z,124.00
2022-08-05T04:58:00.352Z,124.00
2022-08-05T04:59:00.540Z,124.00
2022-08-05T05:00:01.731Z,124.00
2022-08-05T05:01:01.030Z,124.00
2022-08-05T05:02:07.817Z,120.00
2022-08-05T05:03:03.974Z,120.00
2022-08-05T05:04:01.422Z,120.00
2022-08-05T05:05:03.066Z,116.00
2022-08-05T05:06:38.918Z,116.00
2022-08-05T05:07:02.945Z,116.00
2022-08-05T05:08:02.495Z,120.00
2022-08-05T05:09:02.268Z,116.00
2022-08-05T05:10:02.426Z,116.00
2022-08-05T05:11:02.608Z,116.00
2022-08-05T05:12:03.031Z,116.00
2022-08-05T05:13:04.010Z,116.00
2022-08-05T05:14:03.137Z,120.00
2022-08-05T05:15:03.658Z,120.00
2022-08-05T05:16:06.139Z,120.00
2022-08-05T05:17:03.788Z,120.00
2022-08-05T05:18:03.829Z,120.00
2022-08-05T05:19:18.098Z,116.00
2022-08-05T05:20:05.192Z,120.00
2022-08-05T05:21:04.381Z,120.00
2022-08-05T05:22:24.032Z,120.00
2022-08-05T05:23:08.447Z,120.00
2022-08-05T05:24:09.175Z,116.00
2022-08-05T05:25:16.949Z,116.00
2022-08-05T05:26:06.143Z,120.00
2022-08-05T05:27:05.322Z,120.00
2022-08-05T05:28:05.494Z,116.00
2022-08-05T05:29:14.401Z,116.00
2022-08-05T05:30:06.813Z,112.00
2022-08-05T05:31:08.919Z,108.00
2022-08-05T05:32:06.163Z,104.00
2022-08-05T05:33:14.123Z,100.00
2022-08-05T05:34:07.534Z,96.00
2022-08-05T05:35:06.706Z,92.00
2022-08-05T05:36:06.861Z,88.00
2022-08-05T05:37:07.079Z,88.00
2022-08-05T05:38:09.211Z,84.00
2022-08-05T05:39:10.909Z,84.00
2022-08-05T05:40:07.639Z,80.00
2022-08-05T05:41:07.802Z,84.00
2022-08-05T05:42:07.938Z,84.00
2022-08-05T05:43:08.584Z,84.00
2022-08-05T05:44:36.870Z,84.00
2022-08-05T05:45:09.431Z,92.00
2022-08-05T05:46:15.829Z,100.00
2022-08-05T05:47:21.864Z,104.00
2022-08-05T05:48:10.010Z,116.00
2022-08-05T05:49:22.921Z,120.00
2022-08-05T05:50:10.271Z,124.00
2022-08-05T05:51:15.827Z,136.00
2022-08-05T05:52:13.315Z,148.00
2022-08-05T05:53:21.516Z,152.00
2022-08-05T05:54:11.650Z,164.00
2022-08-05T05:55:13.349Z,172.00
2022-08-05T05:56:10.373Z,180.00
2022-08-05T05:57:13.851Z,180.00
2022-08-05T05:58:11.743Z,188.00
2022-08-05T05:59:10.894Z,188.00
2022-08-05T06:00:11.092Z,192.00
2022-08-05T06:01:12.647Z,188.00
2022-08-05T06:02:11.416Z,184.00
2022-08-05T06:03:39.899Z,180.00
2022-08-05T06:04:13.121Z,172.00
2022-08-05T06:05:16.353Z,172.00
2022-08-05T06:06:13.158Z,172.00
2022-08-05T06:07:12.288Z,168.00
2022-08-05T06:08:12.458Z,160.00
2022-08-05T06:09:17.513Z,164.00
2022-08-05T06:10:13.808Z,164.00
2022-08-05T06:11:13.440Z,168.00
2022-08-05T06:12:13.184Z,176.00
2022-08-05T06:13:13.390Z,188.00
2022-08-05T06:14:13.530Z,200.00
2022-08-05T06:15:23.659Z,212.00
2022-08-05T06:16:30.124Z,228.00
2022-08-05T06:17:22.062Z,240.00
2022-08-05T06:18:15.242Z,260.00
2022-08-05T06:19:14.442Z,272.00
2022-08-05T06:20:21.539Z,280.00
2022-08-05T06:21:18.596Z,288.00
2022-08-05T06:22:14.955Z,292.00
2022-08-05T06:23:15.142Z,300.00
2022-08-05T06:24:15.294Z,308.00
2022-08-05T06:25:25.094Z,320.00
2022-08-05T06:26:21.394Z,336.00
2022-08-05T06:28:08.973Z,344.00
2022-08-05T06:28:21.289Z,356.00
2022-08-05T06:29:25.221Z,360.00
2022-08-05T06:30:20.117Z,356.00
2022-08-05T06:31:18.054Z,344.00
2022-08-05T06:32:25.111Z,328.00
2022-08-05T06:33:19.392Z,324.00
2022-08-05T06:34:17.036Z,332.00
2022-08-05T06:36:03.048Z,332.00
2022-08-05T06:36:18.438Z,340.00
2022-08-05T06:37:18.610Z,352.00
2022-08-05T06:38:35.934Z,360.00
2022-08-05T06:39:19.037Z,364.00
2022-08-05T06:40:21.429Z,364.00
2022-08-05T06:41:19.341Z,344.00
2022-08-05T06:42:18.543Z,332.00
2022-08-05T06:43:51.450Z,304.00
2022-08-05T06:44:19.822Z,280.00
2022-08-05T06:45:21.360Z,276.00
2022-08-05T06:46:20.130Z,268.00
2022-08-05T06:48:11.843Z,264.00
2022-08-05T06:48:54.813Z,268.00
2022-08-05T06:49:21.414Z,272.00
2022-08-05T06:50:20.829Z,264.00
2022-08-05T06:51:23.779Z,260.00
2022-08-05T06:52:36.887Z,264.00
2022-08-05T06:53:27.595Z,276.00
2022-08-05T06:54:21.497Z,176.00
2022-08-05T06:55:20.688Z,240.00
2022-08-05T06:56:26.403Z,144.00
2022-08-05T06:58:03.523Z,232.00
2022-08-05T06:58:29.617Z,312.00
2022-08-05T06:59:22.404Z,300.00
2022-08-05T07:00:24.505Z,296.00
2022-08-05T07:01:21.780Z,284.00
2022-08-05T07:02:22.856Z,284.00
2022-08-05T07:03:22.059Z,264.00
2022-08-05T07:04:23.240Z,256.00
2022-08-05T07:05:27.621Z,252.00
2022-08-05T07:06:23.580Z,248.00
2022-08-05T07:07:24.091Z,244.00
2022-08-05T07:08:25.172Z,236.00
2022-08-05T07:09:24.856Z,220.00
2022-08-05T07:10:23.287Z,236.00
2022-08-05T07:11:25.251Z,228.00
2022-08-05T07:12:23.669Z,224.00
2022-08-05T07:13:56.835Z,236.00
2022-08-05T07:14:29.243Z,212.00
2022-08-05T07:15:34.427Z,204.00
2022-08-05T07:17:55.903Z,212.00
2022-08-05T07:18:09.118Z,200.00
2022-08-05T07:18:30.026Z,208.00
2022-08-05T07:20:05.012Z,208.00
2022-08-05T07:20:36.309Z,204.00
2022-08-05T07:21:26.181Z,200.00
2022-08-05T07:22:28.540Z,192.00
2022-08-05T07:23:26.532Z,168.00
2022-08-05T07:24:28.575Z,148.00
2022-08-05T07:25:55.916Z,136.00
2022-08-05T07:26:27.040Z,128.00
2022-08-05T07:27:27.554Z,120.00
2022-08-05T07:28:27.355Z,116.00
2022-08-05T07:30:27.478Z,108.00
2022-08-05T07:30:32.537Z,104.00
2022-08-05T07:31:54.081Z,96.00
2022-08-05T07:32:28.051Z,92.00
2022-08-05T07:33:36.890Z,88.00
2022-08-05T07:34:28.780Z,92.00
2022-08-05T07:35:55.995Z,92.00
2022-08-05T07:36:28.763Z,96.00
2022-08-05T07:37:29.054Z,104.00
2022-08-05T07:38:33.696Z,112.00
2022-08-05T07:40:26.115Z,116.00
2022-08-05T07:40:32.851Z,120.00
2022-08-05T07:42:07.927Z,124.00
2022-08-05T07:42:31.788Z,132.00
2022-08-05T07:43:28.996Z,132.00
2022-08-05T07:44:29.181Z,136.00
2022-08-05T07:45:31.200Z,136.00
2022-08-05T07:46:30.766Z,144.00
2022-08-05T07:47:39.675Z,152.00
2022-08-05T07:49:00.489Z,148.00
2022-08-05T07:49:31.069Z,144.00
2022-08-05T07:50:32.513Z,120.00
2022-08-05T07:51:36.855Z,120.00
2022-08-05T07:52:31.635Z,440.00
2022-08-05T07:53:36.868Z,436.00
2022-08-05T07:54:33.569Z,440.00
2022-08-05T07:55:53.602Z,456.00
2022-08-05T07:57:00.792Z,448.00
2022-08-05T07:57:58.931Z,436.00
2022-08-05T07:58:57.338Z,432.00
2022-08-05T07:59:40.084Z,432.00
2022-08-05T08:00:33.033Z,448.00
2022-08-05T08:01:32.253Z,464.00
2022-08-05T08:03:14.939Z,476.00
2022-08-05T08:03:44.416Z,512.00
2022-08-05T08:04:37.608Z,564.00
2022-08-05T08:05:32.926Z,652.00
2022-08-05T08:06:34.138Z,756.00
2022-08-05T08:07:39.726Z,856.00
2022-08-05T08:08:34.426Z,924.00
2022-08-05T08:09:33.594Z,968.00
2022-08-05T08:10:33.757Z,1008.00
2022-08-05T08:11:47.445Z,1004.00
2022-08-05T08:12:49.411Z,956.00
2022-08-05T08:13:49.335Z,860.00
2022-08-05T08:14:35.478Z,800.00
2022-08-05T08:16:33.331Z,772.00
2022-08-05T08:16:51.239Z,728.00
2022-08-05T08:17:36.011Z,680.00
2022-08-05T08:18:35.161Z,640.00
2022-08-05T08:20:22.670Z,616.00
2022-08-05T08:20:59.805Z,568.00
2022-08-05T08:21:36.715Z,588.00
2022-08-05T08:22:35.876Z,612.00
2022-08-05T08:24:01.408Z,584.00
2022-08-05T08:24:51.140Z,656.00
2022-08-05T08:26:00.672Z,592.00
2022-08-05T08:26:37.625Z,576.00
2022-08-05T08:27:44.975Z,528.00
2022-08-05T08:28:59.176Z,480.00
2022-08-05T08:30:04.209Z,464.00
2022-08-05T08:30:47.983Z,424.00
2022-08-05T08:31:38.505Z,396.00
2022-08-05T08:32:41.784Z,380.00
2022-08-05T08:33:38.547Z,380.00
2022-08-05T08:34:38.007Z,388.00
2022-08-05T08:35:40.979Z,400.00
2022-08-05T08:36:49.925Z,440.00
2022-08-05T08:37:39.558Z,480.00
2022-08-05T08:38:39.710Z,504.00
2022-08-05T08:39:38.927Z,548.00
2022-08-05T08:40:40.059Z,576.00
2022-08-05T08:41:52.431Z,600.00
2022-08-05T08:42:46.755Z,652.00
2022-08-05T08:45:22.938Z,748.00
2022-08-05T08:45:25.060Z,688.00
2022-08-05T08:45:40.934Z,800.00
2022-08-05T08:46:40.112Z,900.00
2022-08-05T08:48:06.656Z,964.00
2022-08-05T08:49:07.936Z,988.00
2022-08-05T08:50:23.042Z,968.00
2022-08-05T08:51:03.978Z,948.00
2022-08-05T08:52:04.085Z,872.00
2022-08-05T08:52:42.169Z,752.00
2022-08-05T08:53:45.027Z,664.00
2022-08-05T08:54:42.296Z,620.00
2022-08-05T08:56:03.818Z,592.00
2022-08-05T08:56:47.787Z,572.00
2022-08-05T08:57:57.841Z,584.00
2022-08-05T08:58:47.645Z,624.00
2022-08-05T08:59:47.267Z,676.00
2022-08-05T09:00:43.656Z,728.00
2022-08-05T09:01:42.788Z,736.00
2022-08-05T09:02:42.891Z,832.00
2022-08-05T09:03:44.884Z,904.00
2022-08-05T09:04:58.137Z,980.00
2022-08-05T09:06:08.789Z,1076.00
2022-08-05T09:06:44.580Z,1192.00
2022-08-05T09:07:57.359Z,1328.00
2022-08-05T09:08:44.936Z,1448.00
2022-08-05T09:09:44.101Z,1516.00
2022-08-05T09:10:46.911Z,1528.00
2022-08-05T09:11:52.141Z,1520.00
2022-08-05T09:12:45.581Z,1520.00
2022-08-05T09:14:10.152Z,1512.00
2022-08-05T09:14:57.503Z,1456.00
2022-08-05T09:15:46.083Z,1360.00
2022-08-05T09:16:48.784Z,1208.00
2022-08-05T09:17:49.804Z,1120.00
2022-08-05T09:18:45.597Z,1048.00
2022-08-05T09:20:02.004Z,992.00
2022-08-05T09:20:46.917Z,996.00
2022-08-05T09:22:23.426Z,1008.00
2022-08-05T09:22:51.818Z,1012.00
2022-08-05T09:23:46.487Z,1000.00
2022-08-05T09:24:46.638Z,944.00
2022-08-05T09:26:03.274Z,924.00
2022-08-05T09:26:47.986Z,884.00
2022-08-05T09:28:04.191Z,800.00
2022-08-05T09:28:48.336Z,712.00
2022-08-05T09:29:48.094Z,624.00
2022-08-05T09:30:47.692Z,544.00
2022-08-05T09:32:40.352Z,492.00
2022-08-05T09:32:49.010Z,460.00
2022-08-05T09:33:48.191Z,440.00
2022-08-05T09:34:48.388Z,440.00
2022-08-05T09:35:48.542Z,436.00
2022-08-05T09:36:56.447Z,420.00
2022-08-05T09:38:12.289Z,408.00
2022-08-05T09:38:50.042Z,384.00
2022-08-05T09:39:52.197Z,348.00
2022-08-05T09:40:52.473Z,320.00
2022-08-05T09:41:53.944Z,276.00
2022-08-05T09:42:50.684Z,220.00
2022-08-05T09:43:49.883Z,292.00
2022-08-05T09:44:50.698Z,304.00
2022-08-05T09:46:07.706Z,320.00
2022-08-05T09:46:53.573Z,364.00
2022-08-05T09:47:55.942Z,424.00
2022-08-05T09:49:07.024Z,476.00
2022-08-05T09:50:02.052Z,524.00
2022-08-05T09:50:52.157Z,572.00
2022-08-05T09:51:51.316Z,632.00
2022-08-05T09:52:52.931Z,648.00
2022-08-05T09:53:54.045Z,676.00
2022-08-05T09:54:51.822Z,696.00
2022-08-05T09:55:56.125Z,732.00
2022-08-05T09:56:53.192Z,820.00
2022-08-05T09:57:54.697Z,904.00
2022-08-05T09:58:53.532Z,1000.00
2022-08-05T09:59:52.696Z,1068.00
2022-08-05T10:00:52.880Z,1096.00
2022-08-05T10:01:55.517Z,1208.00
2022-08-05T10:02:54.270Z,1252.00
2022-08-05T10:03:58.528Z,1180.00
2022-08-05T10:04:54.554Z,1084.00
2022-08-05T10:05:53.737Z,1024.00
2022-08-05T10:06:55.205Z,1012.00
2022-08-05T10:08:35.538Z,912.00
2022-08-05T10:08:55.579Z,848.00
2022-08-05T10:10:14.499Z,812.00
2022-08-05T10:10:55.577Z,760.00
2022-08-05T10:11:54.762Z,664.00
2022-08-05T10:12:54.916Z,600.00
2022-08-05T10:13:55.105Z,596.00
2022-08-05T10:14:55.266Z,592.00
2022-08-05T10:15:55.473Z,548.00
2022-08-05T10:16:55.615Z,480.00
2022-08-05T10:17:57.599Z,448.00
2022-08-05T10:18:55.983Z,444.00
2022-08-05T10:20:03.767Z,448.00
2022-08-05T10:20:57.300Z,444.00
2022-08-05T10:21:56.480Z,476.00
2022-08-05T10:22:56.665Z,512.00
2022-08-05T10:24:00.529Z,548.00
2022-08-05T10:24:57.011Z,572.00
2022-08-05T10:25:57.200Z,600.00
2022-08-05T10:27:00.555Z,624.00
2022-08-05T10:28:13.775Z,644.00
2022-08-05T10:28:58.832Z,664.00
2022-08-05T10:30:41.046Z,692.00
2022-08-05T10:32:52.922Z,820.00
2022-08-05T10:32:53.603Z,748.00
2022-08-05T10:33:01.323Z,908.00
2022-08-05T10:33:58.704Z,1028.00
2022-08-05T10:35:01.105Z,1148.00
2022-08-05T10:35:59.870Z,1500.00
2022-08-05T10:36:59.166Z,1368.00
2022-08-05T10:37:59.337Z,1700.00
2022-08-05T10:38:59.556Z,1512.00
2022-08-05T10:40:16.765Z,1164.00
2022-08-05T10:41:00.932Z,1076.00
2022-08-05T10:42:01.259Z,1108.00
2022-08-05T10:43:00.186Z,928.00
2022-08-05T10:44:00.396Z,860.00
2022-08-05T10:45:00.558Z,820.00
2022-08-05T10:46:06.756Z,840.00
2022-08-05T10:47:01.948Z,896.00
2022-08-05T10:48:31.305Z,988.00
2022-08-05T10:49:05.072Z,1108.00
2022-08-05T10:50:32.590Z,1260.00
2022-08-05T10:51:03.409Z,1464.00
2022-08-05T10:52:02.716Z,1716.00
2022-08-05T10:53:01.957Z,2064.00
2022-08-05T10:54:23.013Z,2484.00
2022-08-05T10:55:03.310Z,2900.00
2022-08-05T10:56:04.718Z,3304.00
2022-08-05T10:57:03.652Z,3112.00
2022-08-05T10:58:02.842Z,3000.00
2022-08-05T10:59:07.318Z,2720.00
2022-08-05T11:00:09.061Z,2796.00
2022-08-05T11:01:04.375Z,3092.00
2022-08-05T11:02:04.975Z,3444.00
2022-08-05T11:03:25.402Z,3196.00
2022-08-05T11:04:04.949Z,3396.00
2022-08-05T11:05:04.106Z,3460.00
2022-08-05T11:06:04.285Z,3636.00
2022-08-05T11:07:04.469Z,5544.00
2022-08-05T11:08:17.207Z,5616.00
2022-08-05T11:09:05.857Z,5896.00
2022-08-05T11:10:10.266Z,6092.00
2022-08-05T11:11:14.631Z,3832.00
2022-08-05T11:12:06.358Z,5316.00
2022-08-05T11:13:05.518Z,4824.00
2022-08-05T11:14:05.690Z,1140.00
2022-08-05T11:15:19.253Z,992.00
2022-08-05T11:16:07.053Z,856.00
2022-08-05T11:17:59.135Z,880.00
2022-08-05T11:18:11.680Z,752.00
2022-08-05T11:20:09.938Z,1436.00
2022-08-05T11:20:11.183Z,1792.00
2022-08-05T11:21:12.036Z,732.00
2022-08-05T11:22:07.143Z,708.00
2022-08-05T11:23:10.455Z,804.00
2022-08-05T11:24:29.726Z,676.00
2022-08-05T11:26:03.258Z,696.00
2022-08-05T11:26:10.071Z,768.00
2022-08-05T11:27:08.035Z,736.00
2022-08-05T11:28:08.185Z,884.00
2022-08-05T11:29:13.816Z,804.00
2022-08-05T11:30:10.562Z,856.00
2022-08-05T11:31:08.696Z,992.00
2022-08-05T11:32:08.893Z,704.00
2022-08-05T11:33:13.660Z,984.00
2022-08-05T11:34:09.271Z,1008.00
2022-08-05T11:35:10.408Z,976.00
2022-08-05T11:36:10.576Z,6008.00
2022-08-05T11:38:30.792Z,24096.00
2022-08-05T11:38:37.004Z,23904.00
2022-08-05T11:39:11.137Z,5808.00
2022-08-05T11:40:10.252Z,1436.00
2022-08-05T11:41:34.679Z,1204.00
2022-08-05T11:42:11.582Z,1212.00
2022-08-05T11:43:11.771Z,960.00
2022-08-05T11:44:10.931Z,948.00
2022-08-05T11:45:14.237Z,864.00
2022-08-05T11:46:14.924Z,836.00
2022-08-05T11:47:48.776Z,756.00
2022-08-05T11:48:12.634Z,720.00
2022-08-05T11:49:11.794Z,936.00
2022-08-05T11:50:14.286Z,1424.00
2022-08-05T11:51:12.148Z,1124.00
2022-08-05T11:52:13.317Z,756.00
2022-08-05T11:53:12.495Z,752.00
2022-08-05T11:54:13.905Z,752.00
2022-08-05T11:55:12.847Z,748.00
2022-08-05T11:56:13.028Z,780.00
2022-08-05T11:57:25.489Z,748.00
2022-08-05T11:58:14.440Z,728.00
2022-08-05T11:59:14.004Z,696.00
2022-08-05T12:00:13.709Z,696.00
2022-08-05T12:01:13.889Z,696.00
2022-08-05T12:02:24.475Z,700.00
2022-08-05T12:03:15.274Z,668.00
2022-08-05T12:04:14.439Z,668.00
2022-08-05T12:05:18.065Z,660.00
2022-08-05T12:06:14.742Z,652.00
2022-08-05T12:07:14.907Z,656.00
2022-08-05T12:08:17.913Z,664.00
2022-08-05T12:09:19.963Z,672.00
2022-08-05T12:10:16.408Z,680.00
2022-08-05T12:11:20.284Z,692.00
2022-08-05T12:12:16.995Z,712.00
2022-08-05T12:13:18.876Z,716.00
2022-08-05T12:14:17.093Z,736.00
2022-08-05T12:15:17.125Z,728.00
2022-08-05T12:16:16.419Z,760.00
2022-08-05T12:18:03.040Z,684.00
2022-08-05T12:18:17.755Z,580.00
2022-08-05T12:20:17.088Z,572.00
2022-08-05T12:20:30.680Z,680.00
2022-08-05T12:21:18.255Z,528.00
2022-08-05T12:22:17.964Z,700.00
2022-08-05T12:23:17.585Z,484.00
2022-08-05T12:24:17.785Z,380.00
2022-08-05T12:25:17.920Z,424.00
2022-08-05T12:26:18.082Z,464.00
2022-08-05T12:27:32.549Z,524.00
2022-08-05T12:28:19.456Z,652.00
2022-08-05T12:29:22.570Z,712.00
2022-08-05T12:30:18.763Z,772.00
2022-08-05T12:31:23.347Z,760.00
2022-08-05T12:32:20.123Z,800.00
2022-08-05T12:33:27.695Z,884.00
2022-08-05T12:34:21.209Z,984.00
2022-08-05T12:35:21.705Z,1064.00
2022-08-05T12:36:19.841Z,676.00
2022-08-05T12:37:30.237Z,776.00
2022-08-05T12:38:22.315Z,792.00
2022-08-05T12:39:21.431Z,832.00
2022-08-05T12:40:26.567Z,544.00
2022-08-05T12:41:21.645Z,432.00
2022-08-05T12:42:21.845Z,424.00
2022-08-05T12:43:21.348Z,704.00
2022-08-05T12:44:32.556Z,776.00